createdAt,value
2017-09-19T00:00:32.095Z,100663.09
2017-09-19T00:02:59.256Z,100665.29
2017-09-19T00:05:26.391Z,100662.27
2017-09-19T00:07:53.517Z,100663.98
2017-09-19T00:10:20.681Z,100662.27
2017-09-19T00:12:47.811Z,100663.09
2017-09-19T00:15:14.974Z,100660.48
2017-09-19T00:17:42.099Z,100661.84
2017-09-19T00:20:09.260Z,100654.43
2017-09-19T00:22:36.420Z,100653.55
2017-09-19T00:25:03.583Z,100657.45
2017-09-19T00:27:30.744Z,100663.09
2017-09-19T00:29:57.904Z,100667.91
2017-09-19T00:32:25.036Z,100665.29
2017-09-19T00:34:52.158Z,100660.07
2017-09-19T00:37:19.328Z,100658.77
2017-09-19T00:39:46.493Z,100660.91
2017-09-19T00:42:13.653Z,100663.98
2017-09-19T00:44:40.783Z,100659.59
2017-09-19T00:47:07.935Z,100652.19
2017-09-19T00:49:35.096Z,100654.84
2017-09-19T00:52:02.261Z,100655.27
2017-09-19T00:54:29.387Z,100650.05
2017-09-19T00:56:56.520Z,100650.09
2017-09-19T00:59:23.682Z,100652.23
2017-09-19T01:01:50.807Z,100653.96
2017-09-19T01:04:17.968Z,100646.55
2017-09-19T01:06:45.103Z,100650.46
2017-09-19T01:09:12.269Z,100648.73
2017-09-19T01:11:39.389Z,100652.19
2017-09-19T01:14:06.788Z,100650.87
2017-09-19T01:16:34.704Z,100646.55
2017-09-19T01:19:01.836Z,100646.55
2017-09-19T01:21:28.996Z,100647.44
2017-09-19T01:23:56.119Z,100647.85
2017-09-19T01:26:23.282Z,100645.24
2017-09-19T01:28:50.439Z,100643.52
2017-09-19T01:31:17.567Z,100644.36
2017-09-19T01:33:44.744Z,100646.55
2017-09-19T01:36:11.907Z,100646.13
2017-09-19T01:38:39.032Z,100647.85
2017-09-19T01:41:06.196Z,100650.87
2017-09-19T01:43:33.315Z,100645.66
2017-09-19T01:46:00.438Z,100648.73
2017-09-19T01:48:27.566Z,100646.13
2017-09-19T01:50:54.959Z,100643.94
2017-09-19T01:53:22.847Z,100647.38
2017-09-19T01:55:50.005Z,100643.52
2017-09-19T01:58:17.165Z,100646.96
2017-09-19T02:00:44.318Z,100646.55
2017-09-19T02:03:11.480Z,100645.24
2017-09-19T02:05:38.626Z,100643.94
2017-09-19T02:08:05.779Z,100644.82
2017-09-19T02:10:32.932Z,100652.60
2017-09-19T02:13:00.095Z,100643.94
2017-09-19T02:15:27.269Z,100650.41
2017-09-19T02:17:54.418Z,100654.33
2017-09-19T02:20:21.557Z,100651.30
2017-09-19T02:22:48.701Z,100651.72
2017-09-19T02:25:16.002Z,100655.62
2017-09-19T02:27:43.164Z,100654.80
2017-09-19T02:30:10.315Z,100658.24
2017-09-19T02:32:37.462Z,100656.05
2017-09-19T02:35:04.624Z,100648.27
2017-09-19T02:37:32.057Z,100651.30
2017-09-19T02:39:59.199Z,100649.58
2017-09-19T02:42:26.337Z,100651.30
2017-09-19T02:44:54.264Z,100657.41
2017-09-19T02:47:21.416Z,100659.55
2017-09-19T02:49:48.581Z,100654.80
2017-09-19T02:52:15.728Z,100654.33
2017-09-19T02:54:42.869Z,100660.85
2017-09-19T02:57:10.009Z,100657.83
2017-09-19T02:59:37.167Z,100649.58
2017-09-19T03:02:04.313Z,100654.74
2017-09-19T03:04:31.457Z,100651.30
2017-09-19T03:06:58.607Z,100649.11
2017-09-19T03:09:25.747Z,100655.62
2017-09-19T03:11:52.924Z,100650.41
2017-09-19T03:14:20.069Z,100652.60
2017-09-19T03:16:47.205Z,100658.66
2017-09-19T03:19:14.380Z,100659.97
2017-09-19T03:21:41.521Z,100657.83
2017-09-19T03:24:08.661Z,100656.47
2017-09-19T03:26:35.819Z,100656.94
2017-09-19T03:29:02.980Z,100658.24
2017-09-19T03:31:30.121Z,100655.62
2017-09-19T03:33:57.280Z,100656.94
2017-09-19T03:36:24.439Z,100652.13
2017-09-19T03:38:51.599Z,100657.77
2017-09-19T03:41:18.755Z,100656.94
2017-09-19T03:43:45.902Z,100656.47
2017-09-19T03:46:13.045Z,100650.46
2017-09-19T03:48:40.185Z,100656.94
2017-09-19T03:51:07.350Z,100659.55
2017-09-19T03:53:34.515Z,100662.16
2017-09-19T03:56:01.653Z,100664.77
2017-09-19T03:58:28.797Z,100665.61
2017-09-19T04:00:55.956Z,100664.72
2017-09-19T04:03:23.111Z,100660.80
2017-09-19T04:05:50.258Z,100667.33
2017-09-19T04:08:17.405Z,100669.10
2017-09-19T04:10:44.564Z,100668.63
2017-09-19T04:13:11.724Z,100673.44
2017-09-19T04:15:38.866Z,100672.55
2017-09-19T04:18:06.024Z,100673.44
2017-09-19T04:20:33.255Z,100668.69
2017-09-19T04:23:01.186Z,100676.05
2017-09-19T04:25:28.367Z,100677.41
2017-09-19T04:27:55.533Z,100680.38
2017-09-19T04:30:22.699Z,100678.66
2017-09-19T04:32:49.841Z,100681.27
2017-09-19T04:35:16.995Z,100687.75
2017-09-19T04:37:44.147Z,100688.22
2017-09-19T04:40:11.295Z,100693.44
2017-09-19T04:42:38.482Z,100699.97
2017-09-19T04:45:05.629Z,100699.55
2017-09-19T04:47:32.790Z,100704.77
2017-09-19T04:49:59.936Z,100701.73
2017-09-19T04:52:27.082Z,100703.88
2017-09-19T04:54:54.248Z,100706.95
2017-09-19T04:57:21.394Z,100701.73
2017-09-19T04:59:48.555Z,100703.46
2017-09-19T05:02:15.748Z,100702.58
2017-09-19T05:04:42.894Z,100702.58
2017-09-19T05:07:10.044Z,100706.07
2017-09-19T05:09:37.208Z,100709.05
2017-09-19T05:12:04.368Z,100712.13
2017-09-19T05:14:31.788Z,100710.88
2017-09-19T05:16:59.243Z,100716.88
2017-09-19T05:19:27.167Z,100716.47
2017-09-19T05:21:54.320Z,100713.91
2017-09-19T05:24:21.477Z,100717.35
2017-09-19T05:26:48.637Z,100716.47
2017-09-19T05:29:15.930Z,100719.49
2017-09-19T05:31:43.084Z,100714.33
2017-09-19T05:34:10.251Z,100719.02
2017-09-19T05:36:37.393Z,100717.30
2017-09-19T05:39:04.546Z,100720.38
2017-09-19T05:41:31.699Z,100713.02
2017-09-19T05:43:58.852Z,100716.00
2017-09-19T05:46:25.995Z,100717.77
2017-09-19T05:48:53.138Z,100717.41
2017-09-19T05:51:20.297Z,100716.94
2017-09-19T05:53:47.460Z,100730.83
2017-09-19T05:56:14.619Z,100726.49
2017-09-19T05:58:41.772Z,100733.44
2017-09-19T06:01:08.919Z,100735.16
2017-09-19T06:03:36.077Z,100735.63
2017-09-19T06:06:03.214Z,100739.49
2017-09-19T06:08:30.357Z,100740.85
2017-09-19T06:10:57.517Z,100744.34
2017-09-19T06:13:24.667Z,100746.44
2017-09-19T06:15:51.819Z,100749.05
2017-09-19T06:18:18.954Z,100760.85
2017-09-19T06:20:46.120Z,100769.09
2017-09-19T06:23:13.256Z,100767.33
2017-09-19T06:25:40.412Z,100767.33
2017-09-19T06:28:07.556Z,100770.88
2017-09-19T06:30:34.707Z,100773.44
2017-09-19T06:33:01.895Z,100769.94
2017-09-19T06:35:29.033Z,100769.98
2017-09-19T06:37:56.188Z,100775.58
2017-09-19T06:40:23.333Z,100769.05
2017-09-19T06:42:51.309Z,100771.66
2017-09-19T06:45:18.457Z,100771.24
2017-09-19T06:47:45.589Z,100779.91
2017-09-19T06:50:12.718Z,100775.58
2017-09-19T06:52:39.885Z,100778.19
2017-09-19T06:55:07.029Z,100778.19
2017-09-19T06:57:34.180Z,100779.49
2017-09-19T07:00:01.365Z,100784.77
2017-09-19T07:02:29.292Z,100788.21
2017-09-19T07:04:56.434Z,100781.31
2017-09-19T07:07:23.580Z,100783.88
2017-09-19T07:09:50.718Z,100783.83
2017-09-19T07:12:17.856Z,100787.75
2017-09-19T07:14:45.016Z,100789.94
2017-09-19T07:17:12.153Z,100793.77
2017-09-19T07:19:39.301Z,100792.55
2017-09-19T07:22:06.441Z,100793.85
2017-09-19T07:24:33.600Z,100797.35
2017-09-19T07:27:00.743Z,100800.80
2017-09-19T07:29:27.918Z,100812.05
2017-09-19T07:31:55.073Z,100814.19
2017-09-19T07:34:22.228Z,100815.39
2017-09-19T07:36:49.383Z,100818.33
2017-09-19T07:39:16.535Z,100818.70
2017-09-19T07:41:43.671Z,100825.12
2017-09-19T07:44:10.833Z,100825.49
2017-09-19T07:46:37.966Z,100827.55
2017-09-19T07:49:05.130Z,100832.73
2017-09-19T07:51:32.292Z,100827.92
2017-09-19T07:53:59.446Z,100833.61
2017-09-19T07:56:26.585Z,100829.83
2017-09-19T07:58:53.722Z,100833.33
2017-09-19T08:01:20.862Z,100829.04
2017-09-19T08:03:48.023Z,100835.57
2017-09-19T08:06:15.177Z,100837.81
2017-09-19T08:08:42.323Z,100837.39
2017-09-19T08:11:09.483Z,100843.03
2017-09-19T08:13:36.640Z,100845.28
2017-09-19T08:16:03.778Z,100846.11
2017-09-19T08:18:30.931Z,100849.14
2017-09-19T08:20:58.087Z,100847.89
2017-09-19T08:23:25.226Z,100850.50
2017-09-19T08:25:52.419Z,100859.64
2017-09-19T08:28:19.576Z,100857.91
2017-09-19T08:30:46.744Z,100860.52
2017-09-19T08:33:13.895Z,100861.41
2017-09-19T08:35:41.047Z,100864.91
2017-09-19T08:38:08.200Z,100868.36
2017-09-19T08:40:35.352Z,100868.83
2017-09-19T08:43:02.508Z,100866.22
2017-09-19T08:45:29.668Z,100867.05
2017-09-19T08:47:56.816Z,100866.63
2017-09-19T08:50:23.958Z,100872.33
2017-09-19T08:52:51.094Z,100867.94
2017-09-19T08:55:18.238Z,100868.41
2017-09-19T08:57:45.381Z,100872.70
2017-09-19T09:00:12.534Z,100870.13
2017-09-19T09:02:39.691Z,100876.24
2017-09-19T09:05:06.824Z,100874.94
2017-09-19T09:07:33.970Z,100878.43
2017-09-19T09:10:01.106Z,100878.43
2017-09-19T09:12:28.259Z,100883.66
2017-09-19T09:14:55.398Z,100881.88
2017-09-19T09:17:22.546Z,100884.50
2017-09-19T09:19:49.704Z,100888.45
2017-09-19T09:22:16.842Z,100890.19
2017-09-19T09:24:43.999Z,100891.02
2017-09-19T09:27:11.290Z,100890.19
2017-09-19T09:29:39.202Z,100890.19
2017-09-19T09:32:06.527Z,100891.48
2017-09-19T09:34:33.952Z,100894.52
2017-09-19T09:37:01.116Z,100896.71
2017-09-19T09:39:29.022Z,100894.10
2017-09-19T09:41:56.181Z,100896.71
2017-09-19T09:44:23.319Z,100898.48
2017-09-19T09:46:50.504Z,100901.05
2017-09-19T09:49:17.643Z,100902.35
2017-09-19T09:51:44.805Z,100898.91
2017-09-19T09:54:11.956Z,100901.05
2017-09-19T09:56:39.253Z,100899.74
2017-09-19T09:59:06.420Z,100901.94
2017-09-19T10:01:33.557Z,100900.16
2017-09-19T10:04:00.756Z,100901.47
2017-09-19T10:06:27.901Z,100901.05
2017-09-19T10:08:55.056Z,100898.39
2017-09-19T10:11:22.198Z,100898.02
2017-09-19T10:13:49.373Z,100900.16
2017-09-19T10:16:17.281Z,100899.74
2017-09-19T10:18:44.441Z,100896.71
2017-09-19T10:21:11.592Z,100899.32
2017-09-19T10:23:39.182Z,100897.13
2017-09-19T10:26:06.402Z,100897.13
2017-09-19T10:28:33.537Z,100896.71
2017-09-19T10:31:00.692Z,100893.69
2017-09-19T10:33:28.036Z,100897.13
2017-09-19T10:35:55.950Z,100895.83
2017-09-19T10:38:23.091Z,100893.63
2017-09-19T10:40:50.577Z,100899.74
2017-09-19T10:43:17.883Z,100901.47
2017-09-19T10:45:45.062Z,100905.38
2017-09-19T10:48:12.244Z,100900.63
2017-09-19T10:50:39.381Z,100905.38
2017-09-19T10:53:06.552Z,100912.33
2017-09-19T10:55:33.694Z,100910.19
2017-09-19T10:58:01.705Z,100915.41
2017-09-19T11:00:28.853Z,100913.22
2017-09-19T11:02:55.990Z,100910.19
2017-09-19T11:05:23.190Z,100914.94
2017-09-19T11:07:50.349Z,100910.19
2017-09-19T11:10:17.540Z,100907.99
2017-09-19T11:12:44.678Z,100911.02
2017-09-19T11:15:11.840Z,100916.42
2017-09-19T11:17:38.996Z,100917.17
2017-09-19T11:20:06.134Z,100919.38
2017-09-19T11:22:33.288Z,100923.66
2017-09-19T11:25:00.458Z,100927.48
2017-09-19T11:27:27.622Z,100930.05
2017-09-19T11:29:54.786Z,100929.47
2017-09-19T11:32:21.957Z,100928.48
2017-09-19T11:34:49.094Z,100926.30
2017-09-19T11:37:16.413Z,100919.30
2017-09-19T11:39:43.575Z,100929.98
2017-09-19T11:42:10.725Z,100933.11
2017-09-19T11:44:37.876Z,100935.39
2017-09-19T11:47:05.023Z,100930.27
2017-09-19T11:49:32.180Z,100932.92
2017-09-19T11:51:59.330Z,100932.55
2017-09-19T11:54:26.488Z,100927.80
2017-09-19T11:56:53.621Z,100929.99
2017-09-19T11:59:20.759Z,100930.46
2017-09-19T12:01:47.915Z,100927.01
2017-09-19T12:04:15.353Z,100921.83
2017-09-19T12:06:42.493Z,100927.06
2017-09-19T12:09:10.402Z,100930.98
2017-09-19T12:11:37.542Z,100934.89
2017-09-19T12:14:05.247Z,100936.62
2017-09-19T12:16:33.296Z,100939.28
2017-09-19T12:19:00.887Z,100933.17
2017-09-19T12:21:28.029Z,100936.62
2017-09-19T12:23:55.188Z,100924.86
2017-09-19T12:26:22.329Z,100926.64
2017-09-19T12:28:49.501Z,100924.91
2017-09-19T12:31:17.380Z,100928.36
2017-09-19T12:33:45.040Z,100930.56
2017-09-19T12:36:12.226Z,100934.05
2017-09-19T12:38:40.300Z,100932.28
2017-09-19T12:41:08.148Z,100926.22
2017-09-19T12:43:35.340Z,100930.61
2017-09-19T12:46:02.481Z,100932.88
2017-09-19T12:48:29.625Z,100931.10
2017-09-19T12:50:56.803Z,100934.47
2017-09-19T12:53:23.951Z,100939.59
2017-09-19T12:55:51.093Z,100936.00
2017-09-19T12:58:19.006Z,100938.98
2017-09-19T13:00:46.252Z,100941.96
2017-09-19T13:03:15.004Z,100943.22
2017-09-19T13:05:42.933Z,100942.23
2017-09-19T13:08:10.099Z,100941.77
2017-09-19T13:10:37.255Z,100940.80
2017-09-19T13:13:04.395Z,100942.01
2017-09-19T13:15:31.591Z,100945.45
2017-09-19T13:17:59.512Z,100944.52
2017-09-19T13:20:26.653Z,100943.63
2017-09-19T13:22:53.803Z,100940.60
2017-09-19T13:25:20.964Z,100943.58
2017-09-19T13:27:48.607Z,100948.30
2017-09-19T13:30:15.808Z,100945.63
2017-09-19T13:32:42.973Z,100953.05
2017-09-19T13:35:10.113Z,100949.92
2017-09-19T13:37:38.477Z,100947.30
2017-09-19T13:40:05.636Z,100948.61
2017-09-19T13:42:32.777Z,100951.56
2017-09-19T13:45:00.029Z,100950.20
2017-09-19T13:47:27.192Z,100947.17
2017-09-19T13:49:54.338Z,100948.02
2017-09-19T13:52:21.481Z,100940.59
2017-09-19T13:54:49.094Z,100944.05
2017-09-19T13:57:16.246Z,100947.17
2017-09-19T13:59:43.396Z,100950.25
2017-09-19T14:02:11.161Z,100941.66
2017-09-19T14:04:38.338Z,100940.77
2017-09-19T14:07:05.495Z,100947.36
2017-09-19T14:09:32.656Z,100943.85
2017-09-19T14:11:59.801Z,100948.66
2017-09-19T14:14:26.955Z,100950.86
2017-09-19T14:16:54.101Z,100946.09
2017-09-19T14:19:21.253Z,100943.02
2017-09-19T14:21:49.478Z,100940.88
2017-09-19T14:24:16.947Z,100941.71
2017-09-19T14:26:44.201Z,100944.33
2017-09-19T14:29:11.728Z,100946.94
2017-09-19T14:31:38.902Z,100940.97
2017-09-19T14:34:06.264Z,100944.00
2017-09-19T14:36:33.687Z,100946.66
2017-09-19T14:39:01.612Z,100948.02
2017-09-19T14:41:28.749Z,100951.52
2017-09-19T14:43:55.894Z,100945.45
2017-09-19T14:46:23.307Z,100947.70
2017-09-19T14:48:50.768Z,100945.50
2017-09-19T14:51:18.565Z,100951.05
2017-09-19T14:53:45.738Z,100946.56
2017-09-19T14:56:14.100Z,100946.00
2017-09-19T14:58:41.312Z,100947.17
2017-09-19T15:01:08.651Z,100944.09
2017-09-19T15:03:36.035Z,100947.96
2017-09-19T15:06:03.938Z,100953.92
2017-09-19T15:08:31.081Z,100957.38
2017-09-19T15:10:58.275Z,100961.44
2017-09-19T15:13:25.440Z,100956.91
2017-09-19T15:15:52.590Z,100959.25
2017-09-19T15:18:19.876Z,100963.73
2017-09-19T15:20:47.027Z,100963.87
2017-09-19T15:23:14.510Z,100965.69
2017-09-19T15:25:41.645Z,100964.06
2017-09-19T15:28:08.804Z,100975.40
2017-09-19T15:30:35.958Z,100976.39
2017-09-19T15:33:03.093Z,100981.61
2017-09-19T15:35:30.252Z,100977.79
2017-09-19T15:37:57.391Z,100981.24
2017-09-19T15:40:24.546Z,100982.17
2017-09-19T15:42:51.900Z,100980.53
2017-09-19T15:45:19.041Z,100981.34
2017-09-19T15:47:46.189Z,100983.56
2017-09-19T15:50:13.349Z,100988.84
2017-09-19T15:52:40.520Z,100985.34
2017-09-19T15:55:07.676Z,100991.91
2017-09-19T15:57:34.809Z,100991.91
2017-09-19T16:00:01.955Z,100998.08
2017-09-19T16:02:29.090Z,101001.98
2017-09-19T16:04:56.224Z,101004.60
2017-09-19T16:07:23.392Z,101007.95
2017-09-19T16:09:50.638Z,101012.68
2017-09-19T16:12:18.865Z,101009.97
2017-09-19T16:14:46.116Z,101008.67
2017-09-19T16:17:13.259Z,101008.67
2017-09-19T16:19:40.397Z,101010.44
2017-09-19T16:22:07.538Z,101012.22
2017-09-19T16:24:34.691Z,101016.60
2017-09-19T16:27:01.844Z,101025.74
2017-09-19T16:29:28.990Z,101024.52
2017-09-19T16:31:56.147Z,101028.91
2017-09-19T16:34:23.296Z,101029.33
2017-09-19T16:36:50.457Z,101025.45
2017-09-19T16:39:17.611Z,101031.98
2017-09-19T16:41:44.785Z,101029.84
2017-09-19T16:44:13.562Z,101038.09
2017-09-19T16:46:40.777Z,101038.56
2017-09-19T16:49:07.958Z,101038.14
2017-09-19T16:51:35.139Z,101042.06
2017-09-19T16:54:02.312Z,101044.67
2017-09-19T16:56:29.454Z,101051.67
2017-09-19T16:58:56.594Z,101058.62
2017-09-19T17:01:23.742Z,101057.78
2017-09-19T17:03:50.893Z,101060.39
2017-09-19T17:06:18.037Z,101061.28
2017-09-19T17:08:45.201Z,101066.50
2017-09-19T17:11:12.346Z,101072.15
2017-09-19T17:13:39.505Z,101070.84
2017-09-19T17:16:06.670Z,101067.44
2017-09-19T17:18:33.826Z,101063.52
2017-09-19T17:21:00.983Z,101077.84
2017-09-19T17:23:28.221Z,101074.39
2017-09-19T17:25:55.384Z,101076.58
2017-09-19T17:28:22.529Z,101081.80
2017-09-19T17:30:49.693Z,101078.77
2017-09-19T17:33:16.843Z,101081.38
2017-09-19T17:35:44.012Z,101082.22
2017-09-19T17:38:11.171Z,101087.03
2017-09-19T17:40:38.319Z,101092.72
2017-09-19T17:43:05.625Z,101089.22
2017-09-19T17:45:32.765Z,101091.41
2017-09-19T17:47:59.928Z,101097.52
2017-09-19T17:50:27.070Z,101096.22
2017-09-19T17:52:54.233Z,101102.33
2017-09-19T17:55:21.396Z,101104.10
2017-09-19T17:57:48.560Z,101107.13
2017-09-19T18:00:15.702Z,101105.41
2017-09-19T18:02:42.859Z,101102.80
2017-09-19T18:05:10.013Z,101108.48
2017-09-19T18:07:37.183Z,101111.47
2017-09-19T18:10:05.102Z,101110.63
2017-09-19T18:12:32.264Z,101115.02
2017-09-19T18:14:59.421Z,101115.44
2017-09-19T18:17:26.689Z,101112.41
2017-09-19T18:19:53.842Z,101125.05
2017-09-19T18:22:21.010Z,101118.47
2017-09-19T18:24:48.929Z,101125.05
2017-09-19T18:27:16.096Z,101137.64
2017-09-19T18:29:43.326Z,101139.41
2017-09-19T18:32:10.478Z,101144.63
2017-09-19T18:34:37.674Z,101145.94
2017-09-19T18:37:06.071Z,101145.05
2017-09-19T18:39:34.005Z,101146.83
2017-09-19T18:42:01.311Z,101147.29
2017-09-19T18:44:28.457Z,101145.94
2017-09-19T18:46:55.624Z,101149.02
2017-09-19T18:49:22.793Z,101144.22
2017-09-19T18:51:49.960Z,101147.72
2017-09-19T18:54:17.130Z,101147.29
2017-09-19T18:56:45.812Z,101143.80
2017-09-19T18:59:13.677Z,101147.72
2017-09-19T19:01:42.267Z,101148.17
2017-09-19T19:04:10.675Z,101150.79
2017-09-19T19:06:38.140Z,101154.29
2017-09-19T19:09:05.326Z,101155.59
2017-09-19T19:11:32.647Z,101154.78
2017-09-19T19:13:59.808Z,101151.26
2017-09-19T19:16:28.078Z,101160.40
2017-09-19T19:18:55.726Z,101160.01
2017-09-19T19:21:22.922Z,101164.73
2017-09-19T19:23:50.844Z,101163.93
2017-09-19T19:26:19.327Z,101167.42
2017-09-19T19:28:47.814Z,101168.73
2017-09-19T19:31:16.542Z,101172.99
2017-09-19T19:33:43.775Z,101170.45
2017-09-19T19:36:11.321Z,101176.56
2017-09-19T19:38:38.889Z,101169.54
2017-09-19T19:41:06.528Z,101177.38
2017-09-19T19:43:34.854Z,101172.66
2017-09-19T19:46:02.073Z,101179.98
2017-09-19T19:48:29.314Z,101184.41
2017-09-19T19:50:56.520Z,101189.13
2017-09-19T19:53:23.895Z,101188.20
2017-09-19T19:55:51.055Z,101184.75
2017-09-19T19:58:18.236Z,101189.97
2017-09-19T20:00:45.431Z,101186.94
2017-09-19T20:03:13.542Z,101187.83
2017-09-19T20:05:41.965Z,101186.59
2017-09-19T20:08:09.907Z,101186.17
2017-09-19T20:10:37.428Z,101194.02
2017-09-19T20:13:04.612Z,101190.44
2017-09-19T20:15:32.121Z,101191.74
2017-09-19T20:17:59.290Z,101198.81
2017-09-19T20:20:26.663Z,101199.23
2017-09-19T20:22:53.810Z,101197.93
2017-09-19T20:25:21.414Z,101202.73
2017-09-19T20:27:48.616Z,101199.28
2017-09-19T20:30:15.754Z,101199.28
2017-09-19T20:32:42.918Z,101205.34
2017-09-19T20:35:10.177Z,101199.23
2017-09-19T20:37:37.635Z,101201.89
2017-09-19T20:40:04.905Z,101200.55
2017-09-19T20:42:34.201Z,101201.84
2017-09-19T20:45:01.525Z,101205.72
2017-09-19T20:47:28.685Z,101200.42
2017-09-19T20:49:55.834Z,101199.53
2017-09-19T20:52:23.769Z,101204.80
2017-09-19T20:54:50.963Z,101204.34
2017-09-19T20:57:18.179Z,101204.80
2017-09-19T20:59:46.273Z,101206.19
2017-09-19T21:02:13.459Z,101200.96
2017-09-19T21:04:46.115Z,101201.38
2017-09-19T21:07:18.961Z,101200.13
2017-09-19T21:09:51.779Z,101197.51
2017-09-19T21:12:24.542Z,101201.84
2017-09-19T21:14:57.318Z,101200.59
2017-09-19T21:17:30.789Z,101201.43
2017-09-19T21:19:58.346Z,101202.73
2017-09-19T21:22:25.654Z,101198.86
2017-09-19T21:24:52.963Z,101195.78
2017-09-19T21:27:20.115Z,101193.22
2017-09-19T21:29:47.719Z,101197.98
2017-09-19T21:32:15.118Z,101201.01
2017-09-19T21:34:42.270Z,101193.64
2017-09-19T21:37:09.431Z,101196.25
2017-09-19T21:39:36.623Z,101195.36
2017-09-19T21:42:03.785Z,101193.64
2017-09-19T21:44:30.963Z,101190.61
2017-09-19T21:46:58.125Z,101192.33
2017-09-19T21:49:26.052Z,101192.28
2017-09-19T21:51:53.198Z,101188.37
2017-09-19T21:54:20.358Z,101189.30
2017-09-19T21:56:47.522Z,101190.61
2017-09-19T21:59:14.700Z,101184.03
2017-09-19T22:01:41.846Z,101186.69
2017-09-19T22:04:09.061Z,101187.02
2017-09-19T22:06:36.268Z,101190.52
2017-09-19T22:09:03.916Z,101185.76
2017-09-19T22:11:31.262Z,101186.64
2017-09-19T22:13:58.880Z,101187.95
2017-09-19T22:16:28.108Z,101186.22
2017-09-19T22:18:56.296Z,101190.14
2017-09-19T22:21:24.933Z,101184.08
2017-09-19T22:23:52.616Z,101185.80
2017-09-19T22:26:21.214Z,101181.88
2017-09-19T22:28:48.405Z,101178.81
2017-09-19T22:31:16.522Z,101183.19
2017-09-19T22:33:44.835Z,101179.69
2017-09-19T22:36:12.814Z,101183.61
2017-09-19T22:38:40.125Z,101187.57
2017-09-19T22:41:07.698Z,101190.56
2017-09-19T22:43:35.587Z,101185.42
2017-09-19T22:46:02.767Z,101186.22
2017-09-19T22:48:30.041Z,101195.36
2017-09-19T22:50:57.200Z,101196.20
2017-09-19T22:53:24.403Z,101191.03
2017-09-19T22:55:51.541Z,101185.84
2017-09-19T22:58:18.700Z,101189.72
2017-09-19T23:00:45.857Z,101182.77
2017-09-19T23:03:12.996Z,101194.52
2017-09-19T23:05:40.143Z,101190.19
2017-09-19T23:08:07.290Z,101187.57
2017-09-19T23:10:34.451Z,101190.19
2017-09-19T23:13:02.363Z,101193.22
2017-09-19T23:15:29.521Z,101191.03
2017-09-19T23:17:56.679Z,101190.19
2017-09-19T23:20:23.888Z,101187.57
2017-09-19T23:22:51.807Z,101182.35
2017-09-19T23:25:18.942Z,101188.83
2017-09-19T23:27:46.100Z,101191.91
2017-09-19T23:30:13.242Z,101194.95
2017-09-19T23:32:40.400Z,101195.83
2017-09-19T23:35:07.580Z,101191.49
2017-09-19T23:37:34.749Z,101188.04
2017-09-19T23:40:01.925Z,101197.60
2017-09-19T23:42:29.100Z,101188.45
2017-09-19T23:44:56.256Z,101191.87
2017-09-19T23:47:23.397Z,101188.41
2017-09-19T23:49:50.556Z,101182.77
2017-09-19T23:52:17.694Z,101182.35
2017-09-19T23:54:44.852Z,101184.08
2017-09-19T23:57:12.015Z,101179.73
2017-09-19T23:59:39.181Z,101180.58
